LEST/SCQ METAR and TAF weather

Enter ICAO airport designator
Station Type Date Time Source
LEST METAR 2020/01/27 13:30 UTC NOAA

LEST 271330Z 24014G26KT 200V300 9999 4000N -RA BKN008 BKN015 OVC021 10/09 Q1015 TEMPO 3000 RA


Station Type Date Time Source
LEST Decoded METAR 2020/01/27 13:30 UTC NOAA

Santiago / Labacolla, Spain (LEST) 42-54N 008-26W 367M
Jan 27, 2020 - 08:30 AM EST / 2020.01.27 1330 UTC
Wind: from the WSW (240 degrees) at 16 MPH (14 KT) gusting to 30 MPH (26 KT) (direction variable):0
Visibility: greater than 7 mile(s):0
Sky conditions: overcast
Weather: light rain
Temperature: 50 F (10 C)
Dew Point: 48 F (9 C)
Relative Humidity: 93%
Pressure (altimeter): 29.97 in. Hg (1015 hPa)
ob: LEST 271330Z 24014G26KT 200V300 9999 4000N -RA BKN008 BKN015 OVC021 10/09 Q1015 TEMPO 3000 RA
cycle: 13

Station Type Date Time Source
LEST TAF 2020/01/27 12:27 UTC NOAA

TAF LEST 271100Z 2712/2812 21009KT 9999 SCT010 BKN014 TX12/2714Z TN07/2806Z
TEMPO 2712/2721 22015G30KT
BECMG 2720/2722 27010KT
TEMPO 2712/2724 1500 -RA BR BKN005 PROB30
TEMPO 2715/2721 3000 SHRA SCT020TCU

Example: see airport list